ブリスベン の空港の天気 - METARとTAF

ブリスベン空港 ( YBBN / BNE ) - オーストラリア クイーンズランド州ブリスベン
飛行場実況気象(Metar)
観測時間05/28 21:00 AEST (05/28 11:00 UTC)
風向・風速西北西 3m/s
視程10km以上
天気現象
なし
気温18℃
湿度88%
気圧1010hPa
METARYBBN 281100Z 29005KT CAVOK 18/16 Q1010
過去の天気等 Google飛行場航空写真 Wunderground天気予報

過去48時間のMETAR

飛行場予報(TAF)
発表時間: 5/28 18:14 AEST (5/28 08:14 UTC)
予報対象時間: 28日19時 AEST ~ 29日22時 AEST
風向・風速不定 3m/s
視程10km以上
なし
28日22時 AEST から
風向・風速西南西 3m/s
視程10km以上
なし
29日9時 AEST から
風向・風速西 6m/s
視程10km以上
なし
TAF YBBN 280814Z 2809/2912 VRB05KT CAVOK
FM281200 25006KT CAVOK
FM282300 27012KT CAVOK